createdAt,value
2023-05-19T00:01:29.376Z,35.80
2023-05-19T00:03:38.413Z,39.22
2023-05-19T00:05:47.706Z,33.55
2023-05-19T00:07:57.522Z,36.35
2023-05-19T00:10:06.290Z,32.03
2023-05-19T00:12:14.857Z,35.92
2023-05-19T00:14:22.395Z,31.63
2023-05-19T00:16:30.573Z,32.22
2023-05-19T00:18:37.486Z,31.65
2023-05-19T00:20:46.499Z,34.78
2023-05-19T00:22:53.735Z,30.60
2023-05-19T00:25:00.913Z,38.30
2023-05-19T00:27:08.200Z,38.42
2023-05-19T00:29:19.536Z,33.90
2023-05-19T00:31:26.591Z,33.22
2023-05-19T00:33:35.733Z,32.53
2023-05-19T00:35:43.183Z,29.55
2023-05-19T00:37:51.890Z,34.45
2023-05-19T00:39:59.412Z,29.15
2023-05-19T00:42:06.916Z,30.85
2023-05-19T00:44:13.891Z,24.48
2023-05-19T00:46:21.371Z,32.03
2023-05-19T00:48:29.126Z,24.30
2023-05-19T00:50:36.563Z,28.05
2023-05-19T00:52:43.543Z,28.15
2023-05-19T00:54:53.284Z,34.45
2023-05-19T00:57:00.454Z,35.45
2023-05-19T00:59:07.960Z,34.70
2023-05-19T01:01:18.082Z,31.30
2023-05-19T01:03:26.777Z,35.78
2023-05-19T01:05:33.802Z,30.02
2023-05-19T01:07:41.649Z,31.73
2023-05-19T01:09:50.167Z,31.75
2023-05-19T01:11:59.031Z,32.42
2023-05-19T01:14:06.576Z,29.17
2023-05-19T01:16:19.424Z,29.52
2023-05-19T01:18:33.939Z,28.25
2023-05-19T01:20:47.369Z,27.58
2023-05-19T01:23:31.311Z,44.05
2023-05-19T01:26:17.850Z,32.83
2023-05-19T01:28:50.906Z,33.03
2023-05-19T01:31:01.430Z,37.47
2023-05-19T01:33:11.258Z,29.00
2023-05-19T01:35:19.976Z,29.17
2023-05-19T01:37:28.904Z,27.52
2023-05-19T01:39:36.592Z,28.88
2023-05-19T01:41:47.622Z,27.92
2023-05-19T01:43:55.419Z,29.90
2023-05-19T01:46:06.115Z,30.30
2023-05-19T01:48:13.369Z,29.97
2023-05-19T01:50:20.340Z,28.70
2023-05-19T01:52:27.673Z,31.00
2023-05-19T01:54:34.807Z,28.08
2023-05-19T01:56:49.770Z,31.08
2023-05-19T01:59:03.555Z,30.98
2023-05-19T02:01:24.952Z,29.85
2023-05-19T02:03:44.249Z,27.88
2023-05-19T02:05:59.164Z,28.38
2023-05-19T02:08:23.790Z,27.90
2023-05-19T02:10:35.330Z,28.40
2023-05-19T02:12:43.069Z,25.77
2023-05-19T02:14:57.976Z,29.23
2023-05-19T02:17:08.740Z,28.45
2023-05-19T02:19:27.746Z,26.55
2023-05-19T02:21:35.445Z,30.92
2023-05-19T02:23:43.599Z,28.75
2023-05-19T02:25:50.471Z,26.17
2023-05-19T02:27:58.013Z,30.15
2023-05-19T02:30:04.841Z,30.40
2023-05-19T02:32:14.258Z,31.33
2023-05-19T02:34:21.112Z,32.13
2023-05-19T02:36:29.301Z,29.35
2023-05-19T02:38:37.351Z,30.20
2023-05-19T02:40:44.587Z,36.10
2023-05-19T02:42:51.614Z,32.55
2023-05-19T02:44:58.847Z,28.98
2023-05-19T02:47:05.821Z,30.02
2023-05-19T02:49:14.896Z,30.40
2023-05-19T02:51:21.900Z,28.70
2023-05-19T02:53:28.955Z,29.83
2023-05-19T02:55:35.774Z,30.58
2023-05-19T02:57:43.421Z,26.65
2023-05-19T02:59:50.500Z,26.55
2023-05-19T03:02:03.238Z,30.85
2023-05-19T03:04:10.280Z,29.83
2023-05-19T03:06:19.375Z,27.98
2023-05-19T03:08:26.330Z,34.08
2023-05-19T03:10:33.739Z,29.73
2023-05-19T03:12:41.073Z,28.05
2023-05-19T03:14:48.609Z,30.85
2023-05-19T03:16:57.195Z,32.35
2023-05-19T03:19:04.502Z,34.53
2023-05-19T03:21:11.736Z,30.75
2023-05-19T03:23:20.610Z,31.45
2023-05-19T03:25:27.745Z,30.35
2023-05-19T03:27:35.039Z,34.83
2023-05-19T03:29:42.159Z,30.17
2023-05-19T03:31:49.201Z,33.72
2023-05-19T03:33:56.716Z,30.60
2023-05-19T03:36:05.193Z,27.08
2023-05-19T03:38:16.170Z,34.95
2023-05-19T03:40:32.931Z,28.80
2023-05-19T03:42:44.975Z,29.40
2023-05-19T03:44:52.294Z,31.52
2023-05-19T03:47:02.550Z,33.00
2023-05-19T03:49:27.759Z,27.25
2023-05-19T03:51:37.697Z,27.70
2023-05-19T03:54:00.036Z,32.67
2023-05-19T03:56:09.058Z,25.80
2023-05-19T03:58:17.029Z,30.35
2023-05-19T04:00:24.241Z,25.80
2023-05-19T04:02:32.665Z,26.40
2023-05-19T04:04:40.207Z,32.30
2023-05-19T04:06:47.691Z,28.60
2023-05-19T04:08:54.710Z,26.77
2023-05-19T04:11:01.895Z,31.73
2023-05-19T04:13:11.119Z,28.20
2023-05-19T04:15:18.558Z,26.15
2023-05-19T04:17:27.466Z,27.58
2023-05-19T04:19:34.818Z,28.67
2023-05-19T04:21:41.746Z,29.10
2023-05-19T04:23:48.974Z,27.35
2023-05-19T04:25:58.098Z,25.63
2023-05-19T04:28:05.246Z,27.60
2023-05-19T04:30:18.673Z,30.15
2023-05-19T04:32:26.055Z,27.27
2023-05-19T04:34:34.873Z,30.23
2023-05-19T04:36:43.486Z,28.33
2023-05-19T04:38:50.924Z,28.73
2023-05-19T04:40:58.252Z,24.80
2023-05-19T04:43:05.233Z,28.35
2023-05-19T04:45:15.076Z,23.88
2023-05-19T04:47:28.996Z,28.83
2023-05-19T04:49:39.944Z,27.88
2023-05-19T04:51:47.166Z,25.80
2023-05-19T04:53:55.371Z,32.03
2023-05-19T04:56:03.179Z,26.92
2023-05-19T04:58:12.348Z,25.63
2023-05-19T05:00:22.369Z,31.92
2023-05-19T05:02:35.734Z,28.38
2023-05-19T05:04:47.669Z,28.38
2023-05-19T05:06:54.796Z,28.48
2023-05-19T05:09:05.065Z,28.33
2023-05-19T05:11:13.004Z,29.35
2023-05-19T05:13:20.894Z,27.40
2023-05-19T05:15:30.944Z,27.42
2023-05-19T05:17:41.608Z,28.67
2023-05-19T05:19:49.601Z,28.48
2023-05-19T05:21:57.583Z,30.17
2023-05-19T05:24:05.968Z,31.70
2023-05-19T05:26:20.360Z,32.10
2023-05-19T05:28:29.439Z,29.83
2023-05-19T05:30:40.054Z,31.77
2023-05-19T05:32:47.644Z,27.23
2023-05-19T05:35:09.159Z,29.17
2023-05-19T05:37:16.094Z,25.73
2023-05-19T05:39:23.319Z,30.05
2023-05-19T05:41:30.500Z,28.73
2023-05-19T05:43:37.640Z,26.55
2023-05-19T05:45:46.644Z,30.00
2023-05-19T05:47:54.511Z,30.95
2023-05-19T05:50:02.305Z,27.65
2023-05-19T05:52:14.140Z,24.15
2023-05-19T05:54:26.602Z,23.92
2023-05-19T05:56:37.936Z,27.20
2023-05-19T05:58:47.671Z,29.05
2023-05-19T06:00:58.865Z,24.52
2023-05-19T06:03:06.855Z,22.83
2023-05-19T06:05:15.193Z,30.13
2023-05-19T06:07:22.940Z,25.73
2023-05-19T06:09:31.259Z,26.15
2023-05-19T06:11:38.338Z,26.27
2023-05-19T06:13:46.337Z,25.63
2023-05-19T06:16:03.747Z,24.95
2023-05-19T06:18:15.760Z,23.83
2023-05-19T06:20:22.987Z,26.27
2023-05-19T06:22:31.193Z,27.52
2023-05-19T06:24:39.607Z,42.42
2023-05-19T06:26:48.933Z,25.88
2023-05-19T06:28:58.217Z,24.98
2023-05-19T06:31:07.213Z,28.00
2023-05-19T06:33:35.471Z,25.27
2023-05-19T06:35:43.019Z,28.98
2023-05-19T06:37:50.546Z,25.85
2023-05-19T06:39:58.036Z,25.48
2023-05-19T06:42:05.368Z,24.73
2023-05-19T06:44:32.422Z,23.02
2023-05-19T06:46:41.361Z,22.75
2023-05-19T06:48:48.265Z,27.80
2023-05-19T06:50:57.561Z,22.30
2023-05-19T06:53:05.138Z,25.23
2023-05-19T06:55:13.148Z,30.88
2023-05-19T06:57:20.565Z,30.17
2023-05-19T06:59:27.924Z,26.15
2023-05-19T07:01:35.427Z,26.15
2023-05-19T07:03:45.898Z,27.80
2023-05-19T07:05:54.583Z,26.98
2023-05-19T07:08:02.678Z,26.13
2023-05-19T07:10:10.836Z,27.08
2023-05-19T07:12:18.121Z,27.48
2023-05-19T07:14:26.271Z,25.88
2023-05-19T07:16:33.631Z,30.75
2023-05-19T07:18:40.780Z,25.65
2023-05-19T07:20:49.922Z,30.42
2023-05-19T07:22:57.033Z,26.75
2023-05-19T07:25:04.695Z,26.98
2023-05-19T07:27:12.687Z,31.33
2023-05-19T07:29:19.819Z,25.60
2023-05-19T07:31:26.978Z,26.60
2023-05-19T07:33:33.927Z,22.95
2023-05-19T07:35:41.007Z,25.77
2023-05-19T07:37:49.878Z,23.83
2023-05-19T07:39:57.021Z,25.50
2023-05-19T07:42:04.035Z,25.02
2023-05-19T07:44:11.538Z,27.08
2023-05-19T07:46:18.568Z,26.55
2023-05-19T07:48:26.804Z,26.85
2023-05-19T07:50:33.947Z,27.02
2023-05-19T07:52:41.209Z,25.60
2023-05-19T07:54:50.087Z,24.80
2023-05-19T07:56:57.323Z,27.67
2023-05-19T07:59:04.097Z,22.88
2023-05-19T08:01:11.177Z,24.80
2023-05-19T08:03:19.694Z,24.85
2023-05-19T08:05:27.126Z,24.48
2023-05-19T08:07:34.167Z,23.55
2023-05-19T08:09:41.290Z,23.77
2023-05-19T08:11:50.923Z,25.83
2023-05-19T08:13:58.057Z,23.98
2023-05-19T08:16:05.061Z,44.83
2023-05-19T08:18:12.567Z,27.88
2023-05-19T08:20:19.395Z,23.15
2023-05-19T08:22:26.527Z,24.35
2023-05-19T08:24:33.950Z,25.63
2023-05-19T08:26:41.351Z,26.17
2023-05-19T08:28:49.975Z,21.27
2023-05-19T08:30:57.263Z,22.00
2023-05-19T08:33:04.158Z,23.88
2023-05-19T08:35:12.341Z,23.13
2023-05-19T08:37:19.510Z,24.20
2023-05-19T08:39:28.111Z,23.70
2023-05-19T08:41:35.281Z,24.33
2023-05-19T08:43:42.338Z,26.42
2023-05-19T08:45:51.114Z,23.23
2023-05-19T08:47:59.071Z,26.02
2023-05-19T08:50:11.828Z,24.80
2023-05-19T08:52:26.221Z,24.75
2023-05-19T08:54:41.134Z,23.13
2023-05-19T08:56:48.684Z,24.67
2023-05-19T08:58:55.959Z,30.65
2023-05-19T09:01:06.199Z,22.92
2023-05-19T09:03:22.711Z,26.05
2023-05-19T09:05:30.820Z,22.98
2023-05-19T09:07:39.380Z,23.67
2023-05-19T09:09:46.657Z,23.05
2023-05-19T09:11:53.634Z,26.58
2023-05-19T09:14:00.718Z,24.85
2023-05-19T09:16:09.914Z,25.17
2023-05-19T09:18:17.641Z,26.70
2023-05-19T09:20:24.716Z,23.65
2023-05-19T09:22:31.846Z,23.80
2023-05-19T09:24:41.434Z,26.80
2023-05-19T09:26:49.078Z,24.52
2023-05-19T09:29:01.277Z,25.17
2023-05-19T09:31:11.708Z,25.73
2023-05-19T09:33:23.807Z,24.92
2023-05-19T09:35:31.087Z,38.75
2023-05-19T09:37:38.143Z,35.50
2023-05-19T09:39:50.289Z,36.20
2023-05-19T09:41:59.544Z,55.13
2023-05-19T09:44:08.393Z,43.50
2023-05-19T09:46:17.147Z,37.88
2023-05-19T09:48:24.290Z,37.75
2023-05-19T09:50:32.842Z,33.42
2023-05-19T09:52:40.612Z,33.25
2023-05-19T09:54:48.152Z,35.53
2023-05-19T09:57:12.474Z,33.50
2023-05-19T09:59:19.603Z,33.90
2023-05-19T10:01:29.031Z,29.70
2023-05-19T10:03:37.812Z,27.27
2023-05-19T10:05:45.706Z,27.15
2023-05-19T10:07:55.658Z,32.30
2023-05-19T10:10:04.320Z,29.55
2023-05-19T10:12:12.215Z,30.38
2023-05-19T10:14:19.762Z,32.90
2023-05-19T10:16:31.283Z,28.55
2023-05-19T10:18:40.207Z,27.15
2023-05-19T10:20:48.263Z,29.38
2023-05-19T10:22:55.398Z,30.60
2023-05-19T10:25:02.329Z,28.80
2023-05-19T10:27:13.803Z,29.83
2023-05-19T10:29:24.878Z,30.95
2023-05-19T10:33:54.806Z,29.95
2023-05-19T10:36:16.626Z,31.40
2023-05-19T10:42:50.244Z,29.85
2023-05-19T10:45:08.547Z,42.35
2023-05-19T10:47:17.245Z,34.58
2023-05-19T10:49:27.623Z,39.33
2023-05-19T10:51:35.573Z,47.92
2023-05-19T10:53:47.670Z,45.60
2023-05-19T10:56:00.080Z,38.80
2023-05-19T10:58:07.511Z,47.42
2023-05-19T11:00:33.350Z,47.80
2023-05-19T11:02:47.099Z,43.15
2023-05-19T11:04:55.171Z,43.72
2023-05-19T11:07:06.448Z,51.15
2023-05-19T11:09:19.464Z,45.67
2023-05-19T11:11:27.368Z,45.38
2023-05-19T11:13:34.855Z,53.65
2023-05-19T11:15:45.874Z,57.85
2023-05-19T11:17:55.276Z,62.53
2023-05-19T11:20:02.371Z,52.08
2023-05-19T11:22:13.568Z,47.60
2023-05-19T11:24:38.619Z,45.88
2023-05-19T11:26:46.205Z,44.60
2023-05-19T11:28:54.291Z,46.70
2023-05-19T11:31:03.292Z,45.30
2023-05-19T11:33:12.086Z,46.05
2023-05-19T11:35:22.515Z,46.00
2023-05-19T11:37:30.004Z,46.85
2023-05-19T11:39:37.852Z,46.00
2023-05-19T11:41:44.856Z,39.03
2023-05-19T11:43:52.122Z,43.53
2023-05-19T11:45:59.289Z,43.17
2023-05-19T11:48:07.146Z,43.88
2023-05-19T11:50:17.695Z,42.80
2023-05-19T11:52:27.128Z,47.37
2023-05-19T11:54:34.936Z,46.10
2023-05-19T11:56:44.922Z,48.50
2023-05-19T11:58:52.001Z,51.92
2023-05-19T12:00:58.934Z,48.70
2023-05-19T12:03:06.655Z,41.92
2023-05-19T12:05:24.654Z,47.58
2023-05-19T12:07:31.994Z,50.60
2023-05-19T12:09:39.744Z,45.53
2023-05-19T12:11:47.798Z,52.90
2023-05-19T12:13:55.889Z,47.08
2023-05-19T12:16:04.470Z,43.65
2023-05-19T12:18:11.626Z,47.10
2023-05-19T12:20:19.484Z,48.22
2023-05-19T12:22:28.356Z,48.25
2023-05-19T12:24:36.562Z,47.75
2023-05-19T12:26:45.430Z,43.38
2023-05-19T12:28:53.873Z,48.42
2023-05-19T12:31:01.027Z,43.88
2023-05-19T12:33:08.582Z,48.58
2023-05-19T12:35:18.969Z,48.08
2023-05-19T12:37:31.072Z,45.65
2023-05-19T12:39:37.974Z,55.55
2023-05-19T12:41:48.304Z,51.13
2023-05-19T12:43:55.222Z,48.80
2023-05-19T12:46:02.658Z,54.25
2023-05-19T12:48:17.015Z,49.42
2023-05-19T12:50:24.402Z,49.45
2023-05-19T12:52:35.121Z,55.00
2023-05-19T12:54:42.395Z,64.05
2023-05-19T12:56:54.346Z,53.95
2023-05-19T12:59:03.670Z,61.42
2023-05-19T13:01:11.481Z,51.42
2023-05-19T13:03:20.960Z,53.05
2023-05-19T13:05:28.462Z,49.55
2023-05-19T13:07:37.363Z,52.30
2023-05-19T13:09:44.341Z,54.60
2023-05-19T13:11:55.089Z,54.80
2023-05-19T13:14:02.044Z,56.40
2023-05-19T13:16:10.150Z,58.80
2023-05-19T13:18:17.752Z,54.80
2023-05-19T13:20:27.621Z,56.78
2023-05-19T13:22:37.519Z,59.08
2023-05-19T13:24:44.497Z,53.78
2023-05-19T13:26:52.287Z,55.80
2023-05-19T13:29:01.374Z,55.75
2023-05-19T13:31:08.691Z,67.95
2023-05-19T13:33:16.252Z,56.90
2023-05-19T13:35:23.276Z,67.00
2023-05-19T13:37:30.681Z,60.75
2023-05-19T13:39:39.568Z,57.55
2023-05-19T13:41:46.716Z,59.25
2023-05-19T13:43:53.692Z,53.55
2023-05-19T13:46:00.941Z,55.55
2023-05-19T13:48:08.836Z,55.22
2023-05-19T13:50:16.305Z,57.83
2023-05-19T13:52:24.265Z,58.40
2023-05-19T13:54:31.551Z,66.70
2023-05-19T13:56:40.311Z,59.92
2023-05-19T13:58:47.441Z,52.80
2023-05-19T14:00:55.802Z,61.60
2023-05-19T14:03:03.217Z,63.80
2023-05-19T14:05:11.184Z,60.28
2023-05-19T14:07:18.673Z,57.05
2023-05-19T14:09:26.310Z,57.55
2023-05-19T14:11:34.891Z,57.55
2023-05-19T14:13:43.678Z,60.28
2023-05-19T14:15:50.958Z,57.95
2023-05-19T14:17:58.083Z,60.47
2023-05-19T14:20:05.550Z,57.28
2023-05-19T14:22:14.525Z,58.13
2023-05-19T14:24:21.817Z,58.80
2023-05-19T14:26:29.380Z,54.65
2023-05-19T14:28:36.700Z,52.20
2023-05-19T14:30:45.663Z,55.72
2023-05-19T14:32:53.098Z,50.58
2023-05-19T14:35:00.841Z,59.40
2023-05-19T14:37:08.172Z,50.00
2023-05-19T14:39:15.056Z,53.97
2023-05-19T14:41:22.603Z,52.42
2023-05-19T14:43:29.664Z,51.03
2023-05-19T14:45:37.059Z,54.55
2023-05-19T14:47:46.680Z,52.60
2023-05-19T14:49:54.922Z,50.50
2023-05-19T14:52:01.987Z,47.42
2023-05-19T14:54:09.231Z,42.63
2023-05-19T14:56:16.135Z,49.55
2023-05-19T14:58:28.753Z,46.15
2023-05-19T15:00:36.294Z,44.83
2023-05-19T15:02:45.492Z,41.05
2023-05-19T15:04:52.542Z,40.13
2023-05-19T15:07:09.604Z,44.20
2023-05-19T15:09:17.805Z,35.25
2023-05-19T15:11:25.213Z,34.58
2023-05-19T15:13:32.192Z,34.90
2023-05-19T15:15:39.460Z,34.22
2023-05-19T15:17:48.962Z,34.15
2023-05-19T15:19:56.333Z,36.30
2023-05-19T15:22:03.310Z,32.03
2023-05-19T15:24:10.745Z,35.28
2023-05-19T15:26:17.981Z,31.58
2023-05-19T15:28:25.464Z,34.38
2023-05-19T15:30:32.478Z,33.97
2023-05-19T15:32:39.701Z,31.20
2023-05-19T15:34:48.406Z,30.67
2023-05-19T15:36:55.535Z,27.83
2023-05-19T15:39:02.611Z,29.83
2023-05-19T15:41:11.426Z,32.90
2023-05-19T15:43:18.556Z,31.85
2023-05-19T15:45:25.907Z,32.35
2023-05-19T15:47:32.808Z,27.15
2023-05-19T15:49:40.111Z,29.30
2023-05-19T15:51:49.106Z,42.58
2023-05-19T15:53:56.561Z,34.65
2023-05-19T15:56:04.608Z,34.42
2023-05-19T15:58:12.104Z,31.35
2023-05-19T16:00:19.849Z,34.08
2023-05-19T16:02:27.557Z,30.17
2023-05-19T16:04:34.574Z,27.35
2023-05-19T16:06:41.636Z,36.85
2023-05-19T16:08:50.220Z,31.85
2023-05-19T16:10:57.659Z,27.83
2023-05-19T16:13:04.818Z,31.38
2023-05-19T16:15:12.785Z,30.42
2023-05-19T16:17:19.666Z,32.33
2023-05-19T16:19:27.465Z,32.45
2023-05-19T16:21:34.486Z,31.90
2023-05-19T16:23:41.839Z,30.45
2023-05-19T16:25:51.511Z,31.17
2023-05-19T16:27:58.805Z,30.88
2023-05-19T16:30:06.750Z,35.85
2023-05-19T16:32:13.970Z,33.47
2023-05-19T16:34:21.039Z,29.58
2023-05-19T16:36:28.544Z,33.20
2023-05-19T16:38:35.519Z,32.85
2023-05-19T16:40:42.760Z,30.90
2023-05-19T16:42:51.425Z,33.42
2023-05-19T16:44:59.934Z,34.17
2023-05-19T16:47:07.115Z,38.92
2023-05-19T16:49:14.397Z,34.13
2023-05-19T16:51:21.426Z,31.48
2023-05-19T16:53:28.656Z,35.67
2023-05-19T16:55:35.427Z,30.38
2023-05-19T16:57:42.559Z,32.53
2023-05-19T16:59:51.640Z,32.65
2023-05-19T17:01:59.013Z,31.02
2023-05-19T17:04:06.098Z,30.35
2023-05-19T17:06:13.386Z,34.38
2023-05-19T17:08:20.209Z,35.40
2023-05-19T17:10:27.344Z,38.22
2023-05-19T17:12:34.528Z,35.70
2023-05-19T17:14:43.296Z,34.08
2023-05-19T17:16:53.538Z,37.30
2023-05-19T17:19:00.808Z,33.92
2023-05-19T17:21:08.323Z,37.10
2023-05-19T17:23:15.651Z,41.20
2023-05-19T17:25:22.728Z,37.80
2023-05-19T17:27:29.965Z,34.67
2023-05-19T17:29:37.176Z,39.35
2023-05-19T17:31:45.008Z,32.60
2023-05-19T17:33:54.176Z,33.15
2023-05-19T17:36:01.554Z,32.33
2023-05-19T17:38:08.437Z,33.78
2023-05-19T17:40:16.539Z,32.58
2023-05-19T17:42:23.511Z,32.63
2023-05-19T17:44:30.741Z,41.15
2023-05-19T17:46:39.803Z,39.50
2023-05-19T17:48:47.052Z,37.10
2023-05-19T17:50:55.668Z,36.83
2023-05-19T17:53:03.485Z,34.15
2023-05-19T17:55:11.863Z,38.15
2023-05-19T17:57:21.563Z,38.33
2023-05-19T17:59:29.162Z,32.83
2023-05-19T18:01:37.070Z,34.40
2023-05-19T18:03:50.120Z,34.85
2023-05-19T18:06:00.143Z,37.95
2023-05-19T18:08:10.406Z,34.42
2023-05-19T18:10:19.353Z,37.45
2023-05-19T18:12:26.427Z,36.35
2023-05-19T18:14:33.919Z,41.05
2023-05-19T18:16:41.012Z,32.70
2023-05-19T18:18:51.252Z,59.97
2023-05-19T18:20:59.914Z,37.22
2023-05-19T18:23:07.148Z,36.03
2023-05-19T18:25:14.479Z,38.67
2023-05-19T18:27:21.763Z,35.35
2023-05-19T18:29:28.798Z,35.50
2023-05-19T18:31:35.908Z,37.67
2023-05-19T18:33:42.695Z,40.00
2023-05-19T18:35:50.757Z,31.95
2023-05-19T18:38:00.904Z,35.42
2023-05-19T18:40:09.113Z,37.33
2023-05-19T18:42:16.133Z,37.00
2023-05-19T18:44:23.069Z,37.83
2023-05-19T18:46:31.048Z,36.75
2023-05-19T18:48:38.444Z,36.53
2023-05-19T18:50:46.154Z,33.97
2023-05-19T18:52:53.486Z,34.58
2023-05-19T18:55:02.314Z,32.53
2023-05-19T18:57:09.953Z,39.55
2023-05-19T18:59:16.915Z,36.42
2023-05-19T19:01:24.559Z,39.10
2023-05-19T19:03:55.807Z,34.08
2023-05-19T19:06:04.573Z,37.00
2023-05-19T19:08:12.007Z,34.35
2023-05-19T19:10:21.566Z,34.13
2023-05-19T19:12:28.839Z,38.08
2023-05-19T19:14:36.885Z,33.90
2023-05-19T19:16:44.113Z,34.28
2023-05-19T19:18:51.691Z,35.38
2023-05-19T19:21:00.624Z,36.97
2023-05-19T19:23:08.578Z,36.67
2023-05-19T19:25:15.866Z,33.30
2023-05-19T19:27:25.959Z,35.63
2023-05-19T19:29:33.142Z,30.50
2023-05-19T19:31:40.644Z,33.85
2023-05-19T19:33:48.221Z,31.95
2023-05-19T19:35:55.667Z,34.35
2023-05-19T19:38:03.071Z,34.30
2023-05-19T19:40:11.715Z,35.78
2023-05-19T19:42:19.712Z,35.60
2023-05-19T19:44:29.197Z,36.53
2023-05-19T19:46:37.480Z,37.88
2023-05-19T19:48:46.488Z,38.92
2023-05-19T19:50:59.571Z,38.05
2023-05-19T19:53:07.396Z,42.28
2023-05-19T19:55:15.299Z,33.75
2023-05-19T19:57:22.991Z,36.15
2023-05-19T19:59:32.084Z,36.22
2023-05-19T20:01:39.767Z,36.83
2023-05-19T20:03:47.058Z,39.05
2023-05-19T20:05:54.850Z,36.45
2023-05-19T20:08:02.020Z,36.35
2023-05-19T20:10:10.534Z,34.47
2023-05-19T20:12:18.084Z,37.63
2023-05-19T20:14:25.869Z,41.00
2023-05-19T20:16:34.761Z,32.72
2023-05-19T20:18:43.686Z,41.80
2023-05-19T20:20:51.422Z,40.42
2023-05-19T20:22:58.895Z,35.35
2023-05-19T20:25:06.064Z,43.60
2023-05-19T20:27:13.432Z,35.97
2023-05-19T20:29:21.976Z,42.97
2023-05-19T20:31:29.466Z,35.55
2023-05-19T20:33:38.416Z,38.55
2023-05-19T20:35:45.948Z,34.20
2023-05-19T20:37:53.262Z,38.78
2023-05-19T20:40:00.904Z,35.00
2023-05-19T20:42:09.008Z,33.50
2023-05-19T20:44:16.813Z,34.00
2023-05-19T20:46:24.494Z,32.78
2023-05-19T20:48:32.248Z,38.10
2023-05-19T20:50:41.013Z,35.95
2023-05-19T20:52:48.508Z,38.45
2023-05-19T20:54:55.891Z,36.45
2023-05-19T20:57:07.374Z,33.40
2023-05-19T20:59:14.713Z,32.17
2023-05-19T21:01:22.399Z,35.22
2023-05-19T21:03:29.721Z,38.35
2023-05-19T21:05:37.076Z,33.08
2023-05-19T21:07:46.068Z,34.28
2023-05-19T21:09:55.333Z,40.55
2023-05-19T21:12:02.514Z,37.33
2023-05-19T21:14:11.538Z,38.20
2023-05-19T21:16:18.581Z,34.95
2023-05-19T21:18:26.407Z,34.92
2023-05-19T21:20:33.828Z,37.85
2023-05-19T21:22:42.008Z,38.83
2023-05-19T21:24:51.076Z,39.22
2023-05-19T21:26:58.980Z,39.58
2023-05-19T21:29:06.164Z,37.13
2023-05-19T21:31:13.622Z,35.20
2023-05-19T21:33:20.935Z,37.80
2023-05-19T21:35:31.392Z,36.47
2023-05-19T21:37:38.675Z,40.20
2023-05-19T21:39:46.834Z,34.30
2023-05-19T21:41:56.558Z,38.15
2023-05-19T21:44:04.724Z,37.33
2023-05-19T21:46:11.944Z,36.83
2023-05-19T21:48:19.275Z,37.25
2023-05-19T21:50:26.325Z,43.05
2023-05-19T21:52:35.702Z,39.58
2023-05-19T21:54:43.447Z,47.63
2023-05-19T21:56:51.257Z,48.03
2023-05-19T21:59:00.269Z,40.80
2023-05-19T22:01:09.121Z,41.40
2023-05-19T22:03:16.416Z,41.63
2023-05-19T22:05:23.906Z,40.33
2023-05-19T22:07:31.045Z,44.17
2023-05-19T22:09:39.703Z,42.45
2023-05-19T22:11:51.710Z,34.60
2023-05-19T22:14:01.139Z,43.53
2023-05-19T22:16:08.830Z,35.85
2023-05-19T22:18:16.270Z,38.70
2023-05-19T22:20:25.325Z,41.72
2023-05-19T22:22:32.990Z,39.38
2023-05-19T22:24:40.886Z,44.63
2023-05-19T22:26:48.630Z,38.05
2023-05-19T22:28:56.268Z,44.70
2023-05-19T22:31:05.603Z,39.17
2023-05-19T22:33:13.285Z,40.05
2023-05-19T22:35:20.995Z,45.40
2023-05-19T22:37:29.910Z,46.13
2023-05-19T22:39:37.399Z,40.28
2023-05-19T22:41:45.196Z,41.88
2023-05-19T22:43:52.784Z,41.25
2023-05-19T22:46:00.620Z,41.15
2023-05-19T22:48:10.591Z,40.30
2023-05-19T22:50:17.927Z,45.33
2023-05-19T22:52:25.818Z,36.58
2023-05-19T22:54:33.125Z,44.53
2023-05-19T22:56:40.740Z,39.20
2023-05-19T22:58:49.928Z,38.53
2023-05-19T23:00:57.922Z,42.65
2023-05-19T23:03:05.304Z,38.20
2023-05-19T23:05:15.053Z,38.33
2023-05-19T23:07:22.432Z,38.88
2023-05-19T23:09:30.436Z,40.53
2023-05-19T23:11:37.722Z,43.75
2023-05-19T23:13:45.366Z,41.05
2023-05-19T23:15:53.622Z,44.25
2023-05-19T23:18:02.440Z,40.63
2023-05-19T23:20:10.697Z,43.05
2023-05-19T23:22:19.989Z,39.83
2023-05-19T23:24:27.412Z,42.33
2023-05-19T23:26:35.154Z,39.70
2023-05-19T23:28:42.709Z,38.25
2023-05-19T23:30:50.517Z,42.50
2023-05-19T23:32:58.082Z,48.92
2023-05-19T23:35:14.909Z,42.65
2023-05-19T23:37:24.225Z,45.22
2023-05-19T23:39:31.979Z,43.17
2023-05-19T23:41:39.676Z,44.83
2023-05-19T23:43:47.154Z,42.88
2023-05-19T23:45:54.753Z,41.17
2023-05-19T23:48:02.780Z,45.10
2023-05-19T23:50:10.780Z,48.53
2023-05-19T23:52:18.499Z,53.60
2023-05-19T23:54:27.831Z,52.15
2023-05-19T23:56:35.630Z,47.95
2023-05-19T23:58:43.132Z,52.50
